createdAt,value
2022-11-16T00:01:44.678Z,14.00
2022-11-16T00:04:12.977Z,14.00
2022-11-16T00:06:41.201Z,14.00
2022-11-16T00:09:23.826Z,14.00
2022-11-16T00:11:56.026Z,14.00
2022-11-16T00:14:26.126Z,14.00
2022-11-16T00:16:53.989Z,14.00
2022-11-16T00:19:21.861Z,14.00
2022-11-16T00:21:49.784Z,14.00
2022-11-16T00:24:20.359Z,14.00
2022-11-16T00:26:48.660Z,14.00
2022-11-16T00:29:20.008Z,14.00
2022-11-16T00:31:48.381Z,14.00
2022-11-16T00:34:16.590Z,14.00
2022-11-16T00:36:44.551Z,14.00
2022-11-16T00:39:13.323Z,14.00
2022-11-16T00:41:41.633Z,14.00
2022-11-16T00:44:09.657Z,14.00
2022-11-16T00:46:38.903Z,14.00
2022-11-16T00:49:07.544Z,14.00
2022-11-16T00:51:36.836Z,14.00
2022-11-16T00:54:06.563Z,14.00
2022-11-16T00:56:34.442Z,14.00
2022-11-16T00:59:02.261Z,14.00
2022-11-16T01:01:30.389Z,14.00
2022-11-16T01:03:59.906Z,14.00
2022-11-16T01:06:27.757Z,14.00
2022-11-16T01:08:55.623Z,14.00
2022-11-16T01:11:37.380Z,14.00
2022-11-16T01:14:06.963Z,14.00
2022-11-16T01:16:35.016Z,14.00
2022-11-16T01:19:04.938Z,14.00
2022-11-16T01:21:32.932Z,14.00
2022-11-16T01:24:00.769Z,14.00
2022-11-16T01:26:28.642Z,14.10
2022-11-16T01:28:56.502Z,14.00
2022-11-16T01:31:24.349Z,14.00
2022-11-16T01:33:52.172Z,14.00
2022-11-16T01:36:21.348Z,14.00
2022-11-16T01:38:49.154Z,14.00
2022-11-16T01:41:19.076Z,14.00
2022-11-16T01:43:53.243Z,14.10
2022-11-16T01:46:21.278Z,14.10
2022-11-16T01:48:53.030Z,14.00
2022-11-16T01:51:22.740Z,14.00
2022-11-16T01:53:51.179Z,14.10
2022-11-16T01:56:19.148Z,14.00
2022-11-16T01:58:47.637Z,14.10
2022-11-16T02:01:15.577Z,14.10
2022-11-16T02:03:43.481Z,14.10
2022-11-16T02:06:39.132Z,14.10
2022-11-16T02:09:53.888Z,14.10
2022-11-16T02:12:40.987Z,14.10
2022-11-16T02:15:16.160Z,14.10
2022-11-16T02:17:52.436Z,14.10
2022-11-16T02:20:44.995Z,14.10
2022-11-16T02:24:03.502Z,14.10
2022-11-16T02:26:49.342Z,14.10
2022-11-16T02:29:25.473Z,14.10
2022-11-16T02:32:00.571Z,14.10
2022-11-16T02:34:33.928Z,14.10
2022-11-16T02:37:04.663Z,14.10
2022-11-16T02:39:35.496Z,14.10
2022-11-16T02:42:05.634Z,14.10
2022-11-16T02:44:38.013Z,14.10
2022-11-16T02:47:12.440Z,14.10
2022-11-16T02:49:43.376Z,14.10
2022-11-16T02:52:14.020Z,14.10
2022-11-16T02:54:41.957Z,14.10
2022-11-16T02:57:31.660Z,14.10
2022-11-16T03:00:02.031Z,14.10
2022-11-16T03:02:36.980Z,14.10
2022-11-16T03:05:10.515Z,14.10
2022-11-16T03:07:41.699Z,14.10
2022-11-16T03:10:11.032Z,14.10
2022-11-16T03:12:41.027Z,14.10
2022-11-16T03:15:13.920Z,14.10
2022-11-16T03:17:45.327Z,14.10
2022-11-16T03:20:16.952Z,14.10
2022-11-16T03:22:46.849Z,14.10
2022-11-16T03:25:18.905Z,14.10
2022-11-16T03:27:54.102Z,14.10
2022-11-16T03:30:24.540Z,14.10
2022-11-16T03:32:58.237Z,14.10
2022-11-16T03:35:30.027Z,14.10
2022-11-16T03:38:00.462Z,14.10
2022-11-16T03:40:32.646Z,14.10
2022-11-16T03:43:02.052Z,14.10
2022-11-16T03:45:32.247Z,14.10
2022-11-16T03:48:01.149Z,14.10
2022-11-16T03:50:29.327Z,14.10
2022-11-16T03:52:57.203Z,14.10
2022-11-16T03:55:25.121Z,14.10
2022-11-16T03:57:52.984Z,14.10
2022-11-16T04:00:21.123Z,14.10
2022-11-16T04:02:50.750Z,14.10
2022-11-16T04:05:36.300Z,14.10
2022-11-16T04:08:21.705Z,14.10
2022-11-16T04:11:07.074Z,14.10
2022-11-16T04:13:53.303Z,14.10
2022-11-16T04:16:39.118Z,14.10
2022-11-16T04:19:27.395Z,14.10
2022-11-16T04:22:16.461Z,14.10
2022-11-16T04:24:47.631Z,14.10
2022-11-16T04:27:35.084Z,14.10
2022-11-16T04:30:04.518Z,14.10
2022-11-16T04:32:50.208Z,14.10
2022-11-16T04:35:42.452Z,14.10
2022-11-16T04:38:10.327Z,14.10
2022-11-16T04:40:38.155Z,14.10
2022-11-16T04:43:06.768Z,14.10
2022-11-16T04:45:52.367Z,14.10
2022-11-16T04:48:20.992Z,14.20
2022-11-16T04:50:50.283Z,14.20
2022-11-16T04:53:18.115Z,14.20
2022-11-16T04:55:45.967Z,14.20
2022-11-16T04:58:13.801Z,14.10
2022-11-16T05:00:41.616Z,14.10
2022-11-16T05:03:09.440Z,14.10
2022-11-16T05:05:37.819Z,14.10
2022-11-16T05:08:09.136Z,14.20
2022-11-16T05:10:37.183Z,14.20
2022-11-16T05:13:05.006Z,14.20
2022-11-16T05:15:32.863Z,14.20
2022-11-16T05:18:00.687Z,14.20
2022-11-16T05:20:46.103Z,14.20
2022-11-16T05:23:29.175Z,14.20
2022-11-16T05:25:57.031Z,14.20
2022-11-16T05:28:24.854Z,14.20
2022-11-16T05:30:52.660Z,14.20
2022-11-16T05:33:20.498Z,14.20
2022-11-16T05:35:51.439Z,14.20
2022-11-16T05:38:20.860Z,14.20
2022-11-16T05:40:48.696Z,14.20
2022-11-16T05:43:16.570Z,14.20
2022-11-16T05:45:44.503Z,14.20
2022-11-16T05:48:12.338Z,14.20
2022-11-16T05:50:42.983Z,14.20
2022-11-16T05:53:10.991Z,14.20
2022-11-16T05:55:40.234Z,14.20
2022-11-16T05:58:08.058Z,14.20
2022-11-16T06:00:35.898Z,14.20
2022-11-16T06:03:03.778Z,14.20
2022-11-16T06:05:35.093Z,14.20
2022-11-16T06:08:05.766Z,14.20
2022-11-16T06:10:33.596Z,14.20
2022-11-16T06:13:02.763Z,14.20
2022-11-16T06:15:30.588Z,14.20
2022-11-16T06:17:58.418Z,14.20
2022-11-16T06:20:26.247Z,14.20
2022-11-16T06:22:54.092Z,14.20
2022-11-16T06:25:21.986Z,14.20
2022-11-16T06:27:49.852Z,14.20
2022-11-16T06:30:19.433Z,14.20
2022-11-16T06:32:47.249Z,14.20
2022-11-16T06:35:15.087Z,14.20
2022-11-16T06:37:43.973Z,14.20
2022-11-16T06:40:12.650Z,14.20
2022-11-16T06:42:40.485Z,14.20
2022-11-16T06:45:09.101Z,14.20
2022-11-16T06:47:38.342Z,14.20
2022-11-16T06:50:06.726Z,14.20
2022-11-16T06:52:34.591Z,14.20
2022-11-16T06:55:02.435Z,14.20
2022-11-16T06:57:30.286Z,14.20
2022-11-16T06:59:58.218Z,14.20
2022-11-16T07:02:26.043Z,14.20
2022-11-16T07:04:59.262Z,14.20
2022-11-16T07:07:30.122Z,14.20
2022-11-16T07:09:57.975Z,14.20
2022-11-16T07:12:26.601Z,14.20
2022-11-16T07:14:54.435Z,14.20
2022-11-16T07:17:22.389Z,14.20
2022-11-16T07:19:50.242Z,14.20
2022-11-16T07:22:19.446Z,14.20
2022-11-16T07:24:47.276Z,14.20
2022-11-16T07:27:15.147Z,14.20
2022-11-16T07:29:42.973Z,14.20
2022-11-16T07:32:10.866Z,14.20
2022-11-16T07:34:38.699Z,14.20
2022-11-16T07:37:06.514Z,14.20
2022-11-16T07:39:35.684Z,14.20
2022-11-16T07:42:03.496Z,14.20
2022-11-16T07:44:31.300Z,14.20
2022-11-16T07:46:59.148Z,14.20
2022-11-16T07:49:26.954Z,14.20
2022-11-16T07:51:54.815Z,14.20
2022-11-16T07:54:22.645Z,14.20
2022-11-16T07:56:52.147Z,14.20
2022-11-16T07:59:19.990Z,14.20
2022-11-16T08:01:48.509Z,14.20
2022-11-16T08:04:17.486Z,14.20
2022-11-16T08:06:46.839Z,14.20
2022-11-16T08:09:14.774Z,14.20
2022-11-16T08:11:42.589Z,14.20
2022-11-16T08:14:12.680Z,14.20
2022-11-16T08:16:40.478Z,14.20
2022-11-16T08:19:08.321Z,14.20
2022-11-16T08:21:36.142Z,14.20
2022-11-16T08:24:04.130Z,14.20
2022-11-16T08:26:32.032Z,14.20
2022-11-16T08:29:00.035Z,14.20
2022-11-16T08:31:30.165Z,14.20
2022-11-16T08:34:00.264Z,14.20
2022-11-16T08:36:28.156Z,14.20
2022-11-16T08:38:56.028Z,14.20
2022-11-16T08:41:23.878Z,14.20
2022-11-16T08:43:53.280Z,14.20
2022-11-16T08:46:21.362Z,14.20
2022-11-16T08:48:50.548Z,14.20
2022-11-16T08:51:20.163Z,14.20
2022-11-16T08:53:49.365Z,14.20
2022-11-16T08:56:18.972Z,14.30
2022-11-16T08:58:48.831Z,14.30
2022-11-16T09:01:21.393Z,14.30
2022-11-16T09:03:50.868Z,14.30
2022-11-16T09:06:19.286Z,14.30
2022-11-16T09:08:47.940Z,14.30
2022-11-16T09:11:17.832Z,14.30
2022-11-16T09:13:46.581Z,14.30
2022-11-16T09:16:16.487Z,14.30
2022-11-16T09:18:45.582Z,14.30
2022-11-16T09:21:18.900Z,14.30
2022-11-16T09:23:47.418Z,14.30
2022-11-16T09:26:15.382Z,14.30
2022-11-16T09:28:43.286Z,14.30
2022-11-16T09:31:11.546Z,14.30
2022-11-16T09:33:39.408Z,14.30
2022-11-16T09:36:09.354Z,14.30
2022-11-16T09:39:13.306Z,14.30
2022-11-16T09:41:45.771Z,14.30
2022-11-16T09:44:28.164Z,14.30
2022-11-16T09:46:59.775Z,14.30
2022-11-16T09:49:32.177Z,14.30
2022-11-16T09:52:03.681Z,14.30
2022-11-16T09:54:36.477Z,14.30
2022-11-16T09:57:12.398Z,14.30
2022-11-16T09:59:45.392Z,14.30
2022-11-16T10:02:20.480Z,14.30
2022-11-16T10:04:57.992Z,14.30
2022-11-16T10:07:32.705Z,14.30
2022-11-16T10:10:01.928Z,14.30
2022-11-16T10:12:35.392Z,14.30
2022-11-16T10:15:16.714Z,14.30
2022-11-16T10:18:00.517Z,14.30
2022-11-16T10:20:50.818Z,14.30
2022-11-16T10:23:32.299Z,14.30
2022-11-16T10:26:13.663Z,14.30
2022-11-16T10:28:56.149Z,14.30
2022-11-16T10:31:33.286Z,14.30
2022-11-16T10:34:05.018Z,14.30
2022-11-16T10:36:36.468Z,14.30
2022-11-16T10:39:13.713Z,14.30
2022-11-16T10:41:45.723Z,14.30
2022-11-16T10:44:20.124Z,14.30
2022-11-16T10:46:57.301Z,14.30
2022-11-16T10:49:35.615Z,14.30
2022-11-16T10:52:03.714Z,14.30
2022-11-16T10:54:31.579Z,14.30
2022-11-16T10:57:05.727Z,14.30
2022-11-16T10:59:41.413Z,14.30
2022-11-16T11:02:37.233Z,14.30
2022-11-16T11:05:17.512Z,14.30
2022-11-16T11:07:52.992Z,14.30
2022-11-16T11:10:30.471Z,14.30
2022-11-16T11:13:07.536Z,14.30
2022-11-16T11:15:35.484Z,14.30
2022-11-16T11:18:19.020Z,14.30
2022-11-16T11:20:49.274Z,14.30
2022-11-16T11:23:20.072Z,14.30
2022-11-16T11:25:53.875Z,14.30
2022-11-16T11:28:26.227Z,14.30
2022-11-16T11:30:58.427Z,14.30
2022-11-16T11:33:28.690Z,14.30
2022-11-16T11:36:01.610Z,14.30
2022-11-16T11:38:29.463Z,14.30
2022-11-16T11:41:01.937Z,14.30
2022-11-16T11:43:33.524Z,14.30
2022-11-16T11:46:08.048Z,14.30
2022-11-16T11:48:47.722Z,14.30
2022-11-16T11:51:22.121Z,14.30
2022-11-16T11:53:56.309Z,14.30
2022-11-16T11:56:25.231Z,14.30
2022-11-16T11:58:55.012Z,14.30
2022-11-16T12:01:42.242Z,14.30
2022-11-16T12:04:52.882Z,14.30
2022-11-16T12:07:31.369Z,14.30
2022-11-16T12:10:08.391Z,14.40
2022-11-16T12:12:47.354Z,14.40
2022-11-16T12:15:49.691Z,14.40
2022-11-16T12:18:35.865Z,14.40
2022-11-16T12:21:13.234Z,14.40
2022-11-16T12:24:03.054Z,14.40
2022-11-16T12:26:41.232Z,14.40
2022-11-16T12:29:25.485Z,14.40
2022-11-16T12:32:18.626Z,14.40
2022-11-16T12:35:01.161Z,14.40
2022-11-16T12:37:36.487Z,14.40
2022-11-16T12:40:38.483Z,14.40
2022-11-16T12:43:16.647Z,14.40
2022-11-16T12:46:14.833Z,14.40
2022-11-16T12:49:09.736Z,14.40
2022-11-16T12:51:46.321Z,14.40
2022-11-16T12:54:32.863Z,14.40
2022-11-16T12:57:13.366Z,14.40
2022-11-16T13:00:07.070Z,14.40
2022-11-16T13:02:51.097Z,14.40
2022-11-16T13:05:22.602Z,14.40
2022-11-16T13:07:53.740Z,14.40
2022-11-16T13:10:27.195Z,14.40
2022-11-16T13:13:29.756Z,14.40
2022-11-16T13:15:49.708Z,14.40
2022-11-16T13:18:21.363Z,14.40
2022-11-16T13:20:57.065Z,14.40
2022-11-16T13:23:34.502Z,14.40
2022-11-16T13:26:10.418Z,14.40
2022-11-16T13:28:43.768Z,14.40
2022-11-16T13:31:15.417Z,14.40
2022-11-16T13:33:50.629Z,14.40
2022-11-16T13:36:47.772Z,14.40
2022-11-16T13:39:22.325Z,14.40
2022-11-16T13:41:52.530Z,14.40
2022-11-16T13:44:30.416Z,14.40
2022-11-16T13:47:04.317Z,14.40
2022-11-16T13:49:36.288Z,14.40
2022-11-16T13:52:22.466Z,14.40
2022-11-16T13:54:54.174Z,14.40
2022-11-16T13:57:25.867Z,14.40
2022-11-16T14:00:12.160Z,14.40
2022-11-16T14:02:41.636Z,14.40
2022-11-16T14:05:17.438Z,14.40
2022-11-16T14:07:49.560Z,14.40
2022-11-16T14:10:47.152Z,14.40
2022-11-16T14:13:39.630Z,14.40
2022-11-16T14:16:55.793Z,14.40
2022-11-16T14:19:54.774Z,14.50
2022-11-16T14:22:42.894Z,14.50
2022-11-16T14:25:24.071Z,14.50
2022-11-16T14:28:01.224Z,14.50
2022-11-16T14:30:33.893Z,14.50
2022-11-16T14:33:01.913Z,14.50
2022-11-16T14:35:34.999Z,14.50
2022-11-16T14:38:05.625Z,14.50
2022-11-16T14:40:43.812Z,14.50
2022-11-16T14:43:19.163Z,14.50
2022-11-16T14:45:49.994Z,14.50
2022-11-16T14:48:20.088Z,14.50
2022-11-16T14:50:59.817Z,14.50
2022-11-16T14:53:29.404Z,14.50
2022-11-16T14:56:10.555Z,14.50
2022-11-16T14:58:38.871Z,14.50
2022-11-16T15:01:08.926Z,14.50
2022-11-16T15:03:42.161Z,14.50
2022-11-16T15:06:10.442Z,14.50
2022-11-16T15:08:43.747Z,14.50
2022-11-16T15:11:22.135Z,14.50
2022-11-16T15:13:50.764Z,14.50
2022-11-16T15:16:20.918Z,14.50
2022-11-16T15:18:59.178Z,14.50
2022-11-16T15:21:27.436Z,14.50
2022-11-16T15:26:45.444Z,14.50
2022-11-16T15:29:17.592Z,14.50
2022-11-16T15:31:45.848Z,14.50
2022-11-16T15:34:14.817Z,14.50
2022-11-16T15:36:42.863Z,14.50
2022-11-16T15:39:15.907Z,14.50
2022-11-16T15:41:45.960Z,14.50
2022-11-16T15:44:17.138Z,14.50
2022-11-16T15:46:47.981Z,14.50
2022-11-16T15:49:29.840Z,14.50
2022-11-16T15:51:59.267Z,14.50
2022-11-16T15:54:29.124Z,14.50
2022-11-16T15:57:07.842Z,14.50
2022-11-16T15:59:38.016Z,14.50
2022-11-16T16:02:06.230Z,14.50
2022-11-16T16:04:34.104Z,14.50
2022-11-16T16:07:02.026Z,14.50
2022-11-16T16:09:32.089Z,14.50
2022-11-16T16:12:18.073Z,14.50
2022-11-16T16:14:46.644Z,14.50
2022-11-16T16:17:23.799Z,14.50
2022-11-16T16:19:56.914Z,14.50
2022-11-16T16:22:27.597Z,14.50
2022-11-16T16:24:55.953Z,14.50
2022-11-16T16:27:26.802Z,14.60
2022-11-16T16:29:56.594Z,14.60
2022-11-16T16:32:27.329Z,14.60
2022-11-16T16:34:56.396Z,14.60
2022-11-16T16:37:26.217Z,14.60
2022-11-16T16:39:54.072Z,14.50
2022-11-16T16:42:22.060Z,14.60
2022-11-16T16:44:51.761Z,14.60
2022-11-16T16:47:21.087Z,14.60
2022-11-16T16:49:49.132Z,14.60
2022-11-16T16:52:17.471Z,14.60
2022-11-16T16:54:45.329Z,14.60
2022-11-16T16:57:14.891Z,14.60
2022-11-16T16:59:44.947Z,14.60
2022-11-16T17:02:14.690Z,14.60
2022-11-16T17:04:43.902Z,14.60
2022-11-16T17:07:11.858Z,14.60
2022-11-16T17:09:39.791Z,14.60
2022-11-16T17:12:07.732Z,14.60
2022-11-16T17:14:35.582Z,14.60
2022-11-16T17:17:03.425Z,14.60
2022-11-16T17:19:32.660Z,14.60
2022-11-16T17:22:00.508Z,14.60
2022-11-16T17:24:28.354Z,14.60
2022-11-16T17:26:56.188Z,14.60
2022-11-16T17:29:24.382Z,14.60
2022-11-16T17:31:52.257Z,14.60
2022-11-16T17:34:20.094Z,14.60
2022-11-16T17:36:49.318Z,14.60
2022-11-16T17:39:17.185Z,14.60
2022-11-16T17:41:44.997Z,14.60
2022-11-16T17:44:17.201Z,14.60
2022-11-16T17:46:48.045Z,14.60
2022-11-16T17:49:15.971Z,14.60
2022-11-16T17:51:44.218Z,14.60
2022-11-16T17:54:13.406Z,14.60
2022-11-16T17:56:41.295Z,14.60
2022-11-16T17:59:09.122Z,14.60
2022-11-16T18:01:37.079Z,14.60
2022-11-16T18:04:05.219Z,14.60
2022-11-16T18:06:33.211Z,14.60
2022-11-16T18:09:01.259Z,14.60
2022-11-16T18:11:30.640Z,14.60
2022-11-16T18:14:00.432Z,14.60
2022-11-16T18:16:30.729Z,14.60
2022-11-16T18:19:00.970Z,14.60
2022-11-16T18:21:29.242Z,14.60
2022-11-16T18:23:57.353Z,14.60
2022-11-16T18:26:25.452Z,14.60
2022-11-16T18:28:54.694Z,14.60
2022-11-16T18:31:24.090Z,14.60
2022-11-16T18:33:52.763Z,14.60
2022-11-16T18:36:21.753Z,14.60
2022-11-16T18:38:49.679Z,14.60
2022-11-16T18:41:20.630Z,14.60
2022-11-16T18:43:53.187Z,14.60
2022-11-16T18:46:24.103Z,14.60
2022-11-16T18:48:51.913Z,14.60
2022-11-16T18:51:20.875Z,14.60
2022-11-16T18:53:49.172Z,14.60
2022-11-16T18:56:17.509Z,14.60
2022-11-16T18:58:53.458Z,14.60
2022-11-16T19:01:24.537Z,14.60
2022-11-16T19:03:52.825Z,14.60
2022-11-16T19:06:21.298Z,14.60
2022-11-16T19:08:55.801Z,14.60
2022-11-16T19:11:24.999Z,14.60
2022-11-16T19:13:54.663Z,14.60
2022-11-16T19:16:24.949Z,14.60
2022-11-16T19:18:53.485Z,14.60
2022-11-16T19:21:21.835Z,14.60
2022-11-16T19:23:51.726Z,14.60
2022-11-16T19:26:22.396Z,14.60
2022-11-16T19:28:51.369Z,14.60
2022-11-16T19:31:22.211Z,14.60
2022-11-16T19:33:55.092Z,14.60
2022-11-16T19:36:23.158Z,14.60
2022-11-16T19:38:51.481Z,14.60
2022-11-16T19:41:21.582Z,14.60
2022-11-16T19:43:51.205Z,14.60
2022-11-16T19:46:21.255Z,14.60
2022-11-16T19:48:49.421Z,14.60
2022-11-16T19:51:21.676Z,14.60
2022-11-16T19:53:49.561Z,14.60
2022-11-16T19:56:19.358Z,14.60
2022-11-16T19:58:47.917Z,14.60
2022-11-16T20:01:17.346Z,14.60
2022-11-16T20:03:45.677Z,14.60
2022-11-16T20:06:15.412Z,14.60
2022-11-16T20:08:48.585Z,14.60
2022-11-16T20:11:18.167Z,14.60
2022-11-16T20:13:46.048Z,14.60
2022-11-16T20:16:15.654Z,14.60
2022-11-16T20:18:44.369Z,14.60
2022-11-16T20:21:18.090Z,14.70
2022-11-16T20:23:47.280Z,14.60
2022-11-16T20:26:15.679Z,14.60
2022-11-16T20:28:44.474Z,14.60
2022-11-16T20:31:14.217Z,14.60
2022-11-16T20:33:42.723Z,14.60
2022-11-16T20:36:12.576Z,14.60
2022-11-16T20:38:41.229Z,14.60
2022-11-16T20:41:11.775Z,14.60
2022-11-16T20:43:40.344Z,14.60
2022-11-16T20:46:08.746Z,14.70
2022-11-16T20:48:37.280Z,14.60
2022-11-16T20:51:05.792Z,14.70
2022-11-16T20:53:34.166Z,14.70
2022-11-16T20:56:03.065Z,14.70
2022-11-16T20:58:33.104Z,14.60
2022-11-16T21:01:01.904Z,14.60
2022-11-16T21:03:29.933Z,14.70
2022-11-16T21:05:57.868Z,14.70
2022-11-16T21:08:26.154Z,14.60
2022-11-16T21:10:54.156Z,14.70
2022-11-16T21:13:39.977Z,14.70
2022-11-16T21:16:11.390Z,14.70
2022-11-16T21:18:40.244Z,14.60
2022-11-16T21:21:09.909Z,14.60
2022-11-16T21:23:39.069Z,14.70
2022-11-16T21:26:08.553Z,14.60
2022-11-16T21:28:36.426Z,14.70
2022-11-16T21:31:06.821Z,14.70
2022-11-16T21:33:36.479Z,14.70
2022-11-16T21:36:06.109Z,14.70
2022-11-16T21:38:34.963Z,14.70
2022-11-16T21:41:04.302Z,14.70
2022-11-16T21:43:33.944Z,14.70
2022-11-16T21:46:03.903Z,14.60
2022-11-16T21:48:33.994Z,14.70
2022-11-16T21:51:05.305Z,14.60
2022-11-16T21:53:33.657Z,14.70
2022-11-16T21:56:02.339Z,14.70
2022-11-16T21:58:30.268Z,14.70
2022-11-16T22:00:59.416Z,14.70
2022-11-16T22:03:29.582Z,14.70
2022-11-16T22:06:18.143Z,14.70
2022-11-16T22:08:48.144Z,14.70
2022-11-16T22:11:16.764Z,14.70
2022-11-16T22:13:44.984Z,14.70
2022-11-16T22:16:15.070Z,14.70
2022-11-16T22:18:44.148Z,14.60
2022-11-16T22:21:12.599Z,14.70
2022-11-16T22:23:40.793Z,14.70
2022-11-16T22:26:11.800Z,14.70
2022-11-16T22:28:40.037Z,14.70
2022-11-16T22:31:10.693Z,14.70
2022-11-16T22:33:39.305Z,14.70
2022-11-16T22:36:09.322Z,14.70
2022-11-16T22:38:37.839Z,14.60
2022-11-16T22:41:05.951Z,14.70
2022-11-16T22:43:36.009Z,14.70
2022-11-16T22:46:06.457Z,14.70
2022-11-16T22:48:35.887Z,14.70
2022-11-16T22:51:08.313Z,14.70
2022-11-16T22:53:36.547Z,14.60
2022-11-16T22:56:06.566Z,14.70
2022-11-16T22:58:35.893Z,14.60
2022-11-16T23:01:04.506Z,14.70
2022-11-16T23:03:32.833Z,14.70
2022-11-16T23:06:00.967Z,14.70
2022-11-16T23:08:29.592Z,14.70
2022-11-16T23:11:19.068Z,14.60
2022-11-16T23:14:06.849Z,14.70
2022-11-16T23:16:35.080Z,14.70
2022-11-16T23:19:03.110Z,14.70
2022-11-16T23:21:48.428Z,14.70
2022-11-16T23:24:34.171Z,14.70
2022-11-16T23:27:22.398Z,14.60
2022-11-16T23:29:53.461Z,14.70
2022-11-16T23:32:21.360Z,14.70
2022-11-16T23:34:49.267Z,14.70
2022-11-16T23:37:17.142Z,14.70
2022-11-16T23:39:45.090Z,14.70
2022-11-16T23:42:30.407Z,14.70
2022-11-16T23:44:59.628Z,14.60
2022-11-16T23:47:27.492Z,14.70
2022-11-16T23:49:55.397Z,14.70
2022-11-16T23:52:23.245Z,14.70
2022-11-16T23:54:51.112Z,14.70
2022-11-16T23:57:19.026Z,14.70
2022-11-16T23:59:46.903Z,14.70
